sensor_id;sensor_type;location;lat;lon;timestamp;P1;durP1;ratioP1;P2;durP2;ratioP2
9900;SDS011;4989;48.772;9.154;2023-06-22T00:03:57;463.83;;;425.03;;
9900;SDS011;4989;48.772;9.154;2023-06-22T00:08:59;492.53;;;451.90;;
9900;SDS011;4989;48.772;9.154;2023-06-22T00:14:03;508.37;;;467.57;;
9900;SDS011;4989;48.772;9.154;2023-06-22T00:19:06;508.13;;;467.20;;
9900;SDS011;4989;48.772;9.154;2023-06-22T00:24:08;508.57;;;467.73;;
9900;SDS011;4989;48.772;9.154;2023-06-22T00:29:10;504.47;;;463.57;;
9900;SDS011;4989;48.772;9.154;2023-06-22T00:34:13;468.53;;;428.33;;
9900;SDS011;4989;48.772;9.154;2023-06-22T00:39:15;410.23;;;373.23;;
9900;SDS011;4989;48.772;9.154;2023-06-22T00:44:18;404.83;;;368.20;;
9900;SDS011;4989;48.772;9.154;2023-06-22T00:49:20;407.50;;;371.17;;
9900;SDS011;4989;48.772;9.154;2023-06-22T00:54:24;401.33;;;365.10;;
9900;SDS011;4989;48.772;9.154;2023-06-22T00:59:27;454.00;;;415.37;;
9900;SDS011;4989;48.772;9.154;2023-06-22T01:04:36;473.40;;;433.40;;
9900;SDS011;4989;48.772;9.154;2023-06-22T01:09:53;499.50;;;458.90;;
9900;SDS011;4989;48.772;9.154;2023-06-22T01:15:10;490.40;;;449.90;;
9900;SDS011;4989;48.772;9.154;2023-06-22T01:20:22;406.27;;;370.50;;
9900;SDS011;4989;48.772;9.154;2023-06-22T01:25:31;482.83;;;443.53;;
9900;SDS011;4989;48.772;9.154;2023-06-22T01:30:46;411.50;;;375.13;;
9900;SDS011;4989;48.772;9.154;2023-06-22T01:36:02;488.47;;;447.67;;
9900;SDS011;4989;48.772;9.154;2023-06-22T01:41:08;489.73;;;449.33;;
9900;SDS011;4989;48.772;9.154;2023-06-22T01:46:13;470.90;;;431.13;;
9900;SDS011;4989;48.772;9.154;2023-06-22T01:51:16;405.13;;;368.57;;
9900;SDS011;4989;48.772;9.154;2023-06-22T01:56:19;398.17;;;362.40;;
9900;SDS011;4989;48.772;9.154;2023-06-22T02:01:23;393.50;;;357.73;;
9900;SDS011;4989;48.772;9.154;2023-06-22T02:06:34;479.90;;;439.67;;
9900;SDS011;4989;48.772;9.154;2023-06-22T02:11:41;490.97;;;450.63;;
9900;SDS011;4989;48.772;9.154;2023-06-22T02:16:48;423.27;;;386.73;;
9900;SDS011;4989;48.772;9.154;2023-06-22T02:21:52;403.77;;;367.87;;
9900;SDS011;4989;48.772;9.154;2023-06-22T02:26:55;411.53;;;374.53;;
9900;SDS011;4989;48.772;9.154;2023-06-22T02:31:57;451.00;;;412.93;;
9900;SDS011;4989;48.772;9.154;2023-06-22T02:36:59;481.90;;;442.10;;
9900;SDS011;4989;48.772;9.154;2023-06-22T02:42:04;478.13;;;438.00;;
9900;SDS011;4989;48.772;9.154;2023-06-22T02:47:06;491.47;;;451.17;;
9900;SDS011;4989;48.772;9.154;2023-06-22T02:52:08;478.00;;;437.20;;
9900;SDS011;4989;48.772;9.154;2023-06-22T02:57:11;496.13;;;455.33;;
9900;SDS011;4989;48.772;9.154;2023-06-22T03:02:16;391.50;;;355.40;;
9900;SDS011;4989;48.772;9.154;2023-06-22T03:07:20;387.47;;;351.93;;
9900;SDS011;4989;48.772;9.154;2023-06-22T03:12:24;390.23;;;354.40;;
9900;SDS011;4989;48.772;9.154;2023-06-22T03:17:29;462.67;;;423.10;;
9900;SDS011;4989;48.772;9.154;2023-06-22T03:22:31;471.93;;;432.03;;
9900;SDS011;4989;48.772;9.154;2023-06-22T03:27:33;508.80;;;461.33;;
9900;SDS011;4989;48.772;9.154;2023-06-22T03:32:35;483.87;;;443.17;;
9900;SDS011;4989;48.772;9.154;2023-06-22T03:37:39;472.07;;;431.87;;
9900;SDS011;4989;48.772;9.154;2023-06-22T03:42:42;493.67;;;452.30;;
9900;SDS011;4989;48.772;9.154;2023-06-22T03:47:44;452.97;;;412.33;;
9900;SDS011;4989;48.772;9.154;2023-06-22T03:52:46;397.87;;;361.23;;
9900;SDS011;4989;48.772;9.154;2023-06-22T03:57:48;423.13;;;385.40;;
9900;SDS011;4989;48.772;9.154;2023-06-22T04:02:51;421.13;;;382.83;;
9900;SDS011;4989;48.772;9.154;2023-06-22T04:07:53;413.13;;;375.57;;
9900;SDS011;4989;48.772;9.154;2023-06-22T04:12:56;422.20;;;385.53;;
9900;SDS011;4989;48.772;9.154;2023-06-22T04:17:58;460.57;;;421.13;;
9900;SDS011;4989;48.772;9.154;2023-06-22T04:23:00;473.63;;;433.13;;
9900;SDS011;4989;48.772;9.154;2023-06-22T04:28:02;493.40;;;452.50;;
9900;SDS011;4989;48.772;9.154;2023-06-22T04:33:05;496.87;;;455.37;;
9900;SDS011;4989;48.772;9.154;2023-06-22T04:38:08;508.93;;;467.47;;
9900;SDS011;4989;48.772;9.154;2023-06-22T04:43:10;496.00;;;455.30;;
9900;SDS011;4989;48.772;9.154;2023-06-22T04:48:12;505.43;;;464.57;;
9900;SDS011;4989;48.772;9.154;2023-06-22T04:53:17;405.43;;;368.63;;
9900;SDS011;4989;48.772;9.154;2023-06-22T04:58:20;413.90;;;376.93;;
9900;SDS011;4989;48.772;9.154;2023-06-22T05:03:24;402.50;;;365.67;;
9900;SDS011;4989;48.772;9.154;2023-06-22T05:08:27;454.57;;;415.87;;
9900;SDS011;4989;48.772;9.154;2023-06-22T05:13:30;500.63;;;458.97;;
9900;SDS011;4989;48.772;9.154;2023-06-22T05:18:32;496.07;;;455.60;;
9900;SDS011;4989;48.772;9.154;2023-06-22T05:23:36;505.53;;;464.93;;
9900;SDS011;4989;48.772;9.154;2023-06-22T05:28:38;516.33;;;475.20;;
9900;SDS011;4989;48.772;9.154;2023-06-22T05:33:41;517.37;;;476.30;;
9900;SDS011;4989;48.772;9.154;2023-06-22T05:38:45;445.57;;;408.00;;
9900;SDS011;4989;48.772;9.154;2023-06-22T05:43:47;405.70;;;369.73;;
9900;SDS011;4989;48.772;9.154;2023-06-22T05:48:49;434.40;;;397.77;;
9900;SDS011;4989;48.772;9.154;2023-06-22T05:53:52;409.87;;;374.00;;
9900;SDS011;4989;48.772;9.154;2023-06-22T05:58:54;423.17;;;387.07;;
9900;SDS011;4989;48.772;9.154;2023-06-22T06:03:56;435.73;;;398.77;;
9900;SDS011;4989;48.772;9.154;2023-06-22T06:08:58;476.30;;;437.33;;
9900;SDS011;4989;48.772;9.154;2023-06-22T06:14:01;502.87;;;462.33;;
9900;SDS011;4989;48.772;9.154;2023-06-22T06:19:03;509.53;;;469.00;;
9900;SDS011;4989;48.772;9.154;2023-06-22T06:24:05;498.90;;;458.73;;
9900;SDS011;4989;48.772;9.154;2023-06-22T06:29:08;523.73;;;482.33;;
9900;SDS011;4989;48.772;9.154;2023-06-22T06:34:10;508.80;;;468.43;;
9900;SDS011;4989;48.772;9.154;2023-06-22T06:39:12;512.33;;;471.73;;
9900;SDS011;4989;48.772;9.154;2023-06-22T06:44:14;449.97;;;412.07;;
9900;SDS011;4989;48.772;9.154;2023-06-22T06:49:16;430.67;;;394.10;;
9900;SDS011;4989;48.772;9.154;2023-06-22T06:54:19;424.13;;;388.03;;
9900;SDS011;4989;48.772;9.154;2023-06-22T06:59:22;439.77;;;403.40;;
9900;SDS011;4989;48.772;9.154;2023-06-22T07:04:24;441.77;;;405.33;;
9900;SDS011;4989;48.772;9.154;2023-06-22T07:09:27;449.67;;;412.27;;
9900;SDS011;4989;48.772;9.154;2023-06-22T07:14:29;511.47;;;471.60;;
9900;SDS011;4989;48.772;9.154;2023-06-22T07:19:33;524.40;;;483.70;;
9900;SDS011;4989;48.772;9.154;2023-06-22T07:24:35;531.60;;;490.90;;
9900;SDS011;4989;48.772;9.154;2023-06-22T07:29:38;535.77;;;495.20;;
9900;SDS011;4989;48.772;9.154;2023-06-22T07:34:43;503.13;;;463.83;;
9900;SDS011;4989;48.772;9.154;2023-06-22T07:39:46;469.67;;;431.90;;
9900;SDS011;4989;48.772;9.154;2023-06-22T07:44:48;453.67;;;417.30;;
9900;SDS011;4989;48.772;9.154;2023-06-22T07:49:52;479.00;;;441.87;;
9900;SDS011;4989;48.772;9.154;2023-06-22T07:54:56;501.07;;;463.37;;
9900;SDS011;4989;48.772;9.154;2023-06-22T08:00:02;527.40;;;487.43;;
9900;SDS011;4989;48.772;9.154;2023-06-22T08:05:17;487.57;;;450.43;;
9900;SDS011;4989;48.772;9.154;2023-06-22T08:10:23;481.30;;;444.37;;
9900;SDS011;4989;48.772;9.154;2023-06-22T08:15:26;491.50;;;453.80;;
9900;SDS011;4989;48.772;9.154;2023-06-22T08:20:30;556.63;;;515.60;;
9900;SDS011;4989;48.772;9.154;2023-06-22T08:25:33;574.87;;;533.27;;
9900;SDS011;4989;48.772;9.154;2023-06-22T08:30:36;578.73;;;536.67;;
9900;SDS011;4989;48.772;9.154;2023-06-22T08:35:38;579.00;;;536.77;;
9900;SDS011;4989;48.772;9.154;2023-06-22T08:40:40;605.10;;;562.73;;
9900;SDS011;4989;48.772;9.154;2023-06-22T08:45:43;581.17;;;539.50;;
9900;SDS011;4989;48.772;9.154;2023-06-22T08:50:46;531.33;;;492.47;;
9900;SDS011;4989;48.772;9.154;2023-06-22T08:55:48;539.93;;;501.53;;
9900;SDS011;4989;48.772;9.154;2023-06-22T09:00:52;530.53;;;492.17;;
9900;SDS011;4989;48.772;9.154;2023-06-22T09:05:54;552.80;;;514.00;;
9900;SDS011;4989;48.772;9.154;2023-06-22T09:10:57;590.07;;;549.43;;
9900;SDS011;4989;48.772;9.154;2023-06-22T09:15:59;643.73;;;599.40;;
9900;SDS011;4989;48.772;9.154;2023-06-22T09:21:02;645.00;;;601.90;;
9900;SDS011;4989;48.772;9.154;2023-06-22T09:26:04;644.70;;;601.00;;
9900;SDS011;4989;48.772;9.154;2023-06-22T09:31:07;568.03;;;525.50;;
9900;SDS011;4989;48.772;9.154;2023-06-22T09:36:10;516.00;;;472.70;;
9900;SDS011;4989;48.772;9.154;2023-06-22T09:41:12;508.47;;;463.97;;
9900;SDS011;4989;48.772;9.154;2023-06-22T09:46:17;491.73;;;449.47;;
9900;SDS011;4989;48.772;9.154;2023-06-22T09:51:19;534.80;;;496.07;;
9900;SDS011;4989;48.772;9.154;2023-06-22T09:56:23;462.53;;;423.47;;
9900;SDS011;4989;48.772;9.154;2023-06-22T10:01:28;493.83;;;452.00;;
9900;SDS011;4989;48.772;9.154;2023-06-22T10:06:30;533.67;;;488.63;;
9900;SDS011;4989;48.772;9.154;2023-06-22T10:11:32;533.33;;;488.40;;
9900;SDS011;4989;48.772;9.154;2023-06-22T10:16:36;546.97;;;501.03;;
9900;SDS011;4989;48.772;9.154;2023-06-22T10:21:38;538.67;;;492.47;;
9900;SDS011;4989;48.772;9.154;2023-06-22T10:26:41;568.20;;;521.47;;
9900;SDS011;4989;48.772;9.154;2023-06-22T10:31:43;549.80;;;504.00;;
9900;SDS011;4989;48.772;9.154;2023-06-22T10:36:45;478.37;;;436.70;;
9900;SDS011;4989;48.772;9.154;2023-06-22T10:41:50;455.83;;;416.10;;
9900;SDS011;4989;48.772;9.154;2023-06-22T10:46:52;492.70;;;452.37;;
9900;SDS011;4989;48.772;9.154;2023-06-22T10:51:54;501.77;;;461.23;;
9900;SDS011;4989;48.772;9.154;2023-06-22T10:56:57;527.53;;;486.50;;
9900;SDS011;4989;48.772;9.154;2023-06-22T11:01:59;544.67;;;501.37;;
9900;SDS011;4989;48.772;9.154;2023-06-22T11:07:01;581.43;;;536.97;;
9900;SDS011;4989;48.772;9.154;2023-06-22T11:12:04;591.03;;;545.90;;
9900;SDS011;4989;48.772;9.154;2023-06-22T11:17:07;584.67;;;540.07;;
9900;SDS011;4989;48.772;9.154;2023-06-22T11:22:09;572.53;;;528.30;;
9900;SDS011;4989;48.772;9.154;2023-06-22T11:27:12;583.00;;;538.43;;
9900;SDS011;4989;48.772;9.154;2023-06-22T11:32:14;546.93;;;505.03;;
9900;SDS011;4989;48.772;9.154;2023-06-22T11:37:16;492.73;;;453.77;;
9900;SDS011;4989;48.772;9.154;2023-06-22T11:42:19;481.53;;;442.17;;
9900;SDS011;4989;48.772;9.154;2023-06-22T11:47:21;515.90;;;477.07;;
9900;SDS011;4989;48.772;9.154;2023-06-22T11:52:23;513.60;;;474.33;;
9900;SDS011;4989;48.772;9.154;2023-06-22T11:57:25;497.67;;;458.77;;
9900;SDS011;4989;48.772;9.154;2023-06-22T12:02:28;539.93;;;498.03;;
9900;SDS011;4989;48.772;9.154;2023-06-22T12:07:30;590.53;;;547.77;;
9900;SDS011;4989;48.772;9.154;2023-06-22T12:12:32;614.03;;;570.40;;
9900;SDS011;4989;48.772;9.154;2023-06-22T12:17:35;604.60;;;561.53;;
9900;SDS011;4989;48.772;9.154;2023-06-22T12:22:37;625.30;;;580.90;;
9900;SDS011;4989;48.772;9.154;2023-06-22T12:27:39;636.33;;;591.37;;
9900;SDS011;4989;48.772;9.154;2023-06-22T12:32:41;636.13;;;591.93;;
9900;SDS011;4989;48.772;9.154;2023-06-22T12:37:44;619.50;;;577.53;;
9900;SDS011;4989;48.772;9.154;2023-06-22T12:42:46;571.37;;;531.80;;
9900;SDS011;4989;48.772;9.154;2023-06-22T12:47:48;558.60;;;519.50;;
9900;SDS011;4989;48.772;9.154;2023-06-22T12:52:51;584.23;;;544.20;;
9900;SDS011;4989;48.772;9.154;2023-06-22T12:57:54;568.83;;;528.47;;
9900;SDS011;4989;48.772;9.154;2023-06-22T13:02:56;555.60;;;515.57;;
9900;SDS011;4989;48.772;9.154;2023-06-22T13:07:59;597.30;;;554.60;;
9900;SDS011;4989;48.772;9.154;2023-06-22T13:13:01;602.80;;;559.13;;
9900;SDS011;4989;48.772;9.154;2023-06-22T13:18:03;625.07;;;581.77;;
9900;SDS011;4989;48.772;9.154;2023-06-22T13:23:06;617.57;;;573.23;;
9900;SDS011;4989;48.772;9.154;2023-06-22T13:28:08;643.73;;;599.70;;
9900;SDS011;4989;48.772;9.154;2023-06-22T13:33:27;607.23;;;566.77;;
9900;SDS011;4989;48.772;9.154;2023-06-22T13:38:30;652.63;;;609.43;;
9900;SDS011;4989;48.772;9.154;2023-06-22T13:43:33;689.20;;;644.17;;
9900;SDS011;4989;48.772;9.154;2023-06-22T13:48:35;690.17;;;645.87;;
9900;SDS011;4989;48.772;9.154;2023-06-22T13:53:37;711.57;;;666.77;;
9900;SDS011;4989;48.772;9.154;2023-06-22T13:58:40;712.73;;;667.57;;
9900;SDS011;4989;48.772;9.154;2023-06-22T14:03:42;720.40;;;675.63;;
9900;SDS011;4989;48.772;9.154;2023-06-22T14:08:47;641.43;;;600.13;;
9900;SDS011;4989;48.772;9.154;2023-06-22T14:13:49;645.97;;;605.10;;
9900;SDS011;4989;48.772;9.154;2023-06-22T14:18:51;634.63;;;593.37;;
9900;SDS011;4989;48.772;9.154;2023-06-22T14:23:57;639.47;;;598.33;;
9900;SDS011;4989;48.772;9.154;2023-06-22T14:28:59;685.07;;;641.97;;
9900;SDS011;4989;48.772;9.154;2023-06-22T14:34:01;710.73;;;665.93;;
9900;SDS011;4989;48.772;9.154;2023-06-22T14:39:05;711.80;;;666.77;;
9900;SDS011;4989;48.772;9.154;2023-06-22T14:44:07;699.97;;;655.83;;
9900;SDS011;4989;48.772;9.154;2023-06-22T14:49:09;732.93;;;687.70;;
9900;SDS011;4989;48.772;9.154;2023-06-22T14:54:11;745.47;;;699.23;;
9900;SDS011;4989;48.772;9.154;2023-06-22T14:59:14;753.87;;;709.13;;
9900;SDS011;4989;48.772;9.154;2023-06-22T15:04:16;708.03;;;664.90;;
9900;SDS011;4989;48.772;9.154;2023-06-22T15:09:18;675.73;;;634.47;;
9900;SDS011;4989;48.772;9.154;2023-06-22T15:14:20;674.37;;;633.10;;
9900;SDS011;4989;48.772;9.154;2023-06-22T15:19:23;662.87;;;621.70;;
9900;SDS011;4989;48.772;9.154;2023-06-22T15:24:25;671.07;;;629.17;;
9900;SDS011;4989;48.772;9.154;2023-06-22T15:29:28;700.20;;;657.67;;
9900;SDS011;4989;48.772;9.154;2023-06-22T15:34:35;735.80;;;690.93;;
9900;SDS011;4989;48.772;9.154;2023-06-22T15:39:37;753.93;;;707.87;;
9900;SDS011;4989;48.772;9.154;2023-06-22T15:44:40;735.17;;;690.07;;
9900;SDS011;4989;48.772;9.154;2023-06-22T15:49:42;755.60;;;710.20;;
9900;SDS011;4989;48.772;9.154;2023-06-22T15:54:45;738.33;;;694.47;;
9900;SDS011;4989;48.772;9.154;2023-06-22T15:59:47;696.93;;;654.80;;
9900;SDS011;4989;48.772;9.154;2023-06-22T16:04:49;689.23;;;647.67;;
9900;SDS011;4989;48.772;9.154;2023-06-22T16:09:52;672.97;;;631.87;;
9900;SDS011;4989;48.772;9.154;2023-06-22T16:14:54;688.10;;;646.77;;
9900;SDS011;4989;48.772;9.154;2023-06-22T16:19:57;690.40;;;648.50;;
9900;SDS011;4989;48.772;9.154;2023-06-22T16:25:01;721.53;;;676.57;;
9900;SDS011;4989;48.772;9.154;2023-06-22T16:30:03;721.87;;;676.90;;
9900;SDS011;4989;48.772;9.154;2023-06-22T16:35:08;722.37;;;677.47;;
9900;SDS011;4989;48.772;9.154;2023-06-22T16:40:10;731.90;;;686.57;;
9900;SDS011;4989;48.772;9.154;2023-06-22T16:45:14;736.13;;;690.63;;
9900;SDS011;4989;48.772;9.154;2023-06-22T16:50:19;660.33;;;619.03;;
9900;SDS011;4989;48.772;9.154;2023-06-22T16:55:21;662.10;;;620.40;;
9900;SDS011;4989;48.772;9.154;2023-06-22T17:00:26;665.10;;;623.43;;
9900;SDS011;4989;48.772;9.154;2023-06-22T17:05:28;701.30;;;656.83;;
9900;SDS011;4989;48.772;9.154;2023-06-22T17:10:33;709.80;;;665.13;;
9900;SDS011;4989;48.772;9.154;2023-06-22T17:15:35;708.17;;;663.57;;
9900;SDS011;4989;48.772;9.154;2023-06-22T17:20:40;716.43;;;670.77;;
9900;SDS011;4989;48.772;9.154;2023-06-22T17:25:42;717.33;;;672.50;;
9900;SDS011;4989;48.772;9.154;2023-06-22T17:30:56;640.53;;;599.63;;
9900;SDS011;4989;48.772;9.154;2023-06-22T17:36:12;703.77;;;659.03;;
9900;SDS011;4989;48.772;9.154;2023-06-22T17:41:15;674.53;;;632.17;;
9900;SDS011;4989;48.772;9.154;2023-06-22T17:46:18;632.30;;;591.53;;
9900;SDS011;4989;48.772;9.154;2023-06-22T17:56:51;947.87;;;886.07;;
9900;SDS011;4989;48.772;9.154;2023-06-22T18:01:53;874.57;;;817.80;;
9900;SDS011;4989;48.772;9.154;2023-06-22T18:06:55;826.97;;;774.13;;
9900;SDS011;4989;48.772;9.154;2023-06-22T18:11:58;852.37;;;800.40;;
9900;SDS011;4989;48.772;9.154;2023-06-22T18:17:05;845.57;;;791.63;;
9900;SDS011;4989;48.772;9.154;2023-06-22T18:22:08;702.43;;;658.03;;
9900;SDS011;4989;48.772;9.154;2023-06-22T18:27:10;809.73;;;760.83;;
9900;SDS011;4989;48.772;9.154;2023-06-22T18:32:16;770.33;;;722.40;;
9900;SDS011;4989;48.772;9.154;2023-06-22T18:37:18;750.40;;;703.73;;
9900;SDS011;4989;48.772;9.154;2023-06-22T18:42:21;764.70;;;716.60;;
9900;SDS011;4989;48.772;9.154;2023-06-22T18:47:30;712.70;;;667.77;;
9900;SDS011;4989;48.772;9.154;2023-06-22T18:52:33;820.47;;;768.80;;
9900;SDS011;4989;48.772;9.154;2023-06-22T18:57:40;891.40;;;833.70;;
9900;SDS011;4989;48.772;9.154;2023-06-22T19:02:43;874.70;;;816.90;;
9900;SDS011;4989;48.772;9.154;2023-06-22T19:12:58;865.77;;;808.43;;
9900;SDS011;4989;48.772;9.154;2023-06-22T19:23:44;951.90;;;889.43;;
9900;SDS011;4989;48.772;9.154;2023-06-22T19:28:49;762.47;;;713.73;;
9900;SDS011;4989;48.772;9.154;2023-06-22T19:34:04;733.77;;;687.73;;
9900;SDS011;4989;48.772;9.154;2023-06-22T19:39:07;720.40;;;673.33;;
9900;SDS011;4989;48.772;9.154;2023-06-22T19:44:09;732.23;;;684.37;;
9900;SDS011;4989;48.772;9.154;2023-06-22T19:49:14;752.10;;;704.53;;
9900;SDS011;4989;48.772;9.154;2023-06-22T19:54:18;697.30;;;652.50;;
9900;SDS011;4989;48.772;9.154;2023-06-22T19:59:20;727.53;;;679.57;;
9900;SDS011;4989;48.772;9.154;2023-06-22T20:04:25;741.07;;;690.97;;
9900;SDS011;4989;48.772;9.154;2023-06-22T20:09:28;733.20;;;682.97;;
9900;SDS011;4989;48.772;9.154;2023-06-22T20:14:33;795.17;;;741.03;;
9900;SDS011;4989;48.772;9.154;2023-06-22T20:19:36;836.80;;;778.53;;
9900;SDS011;4989;48.772;9.154;2023-06-22T20:24:42;918.07;;;854.40;;
9900;SDS011;4989;48.772;9.154;2023-06-22T20:29:47;853.33;;;793.07;;
9900;SDS011;4989;48.772;9.154;2023-06-22T20:34:49;853.07;;;794.10;;
9900;SDS011;4989;48.772;9.154;2023-06-22T20:39:52;827.87;;;766.90;;
9900;SDS011;4989;48.772;9.154;2023-06-22T20:44:54;883.33;;;819.47;;
9900;SDS011;4989;48.772;9.154;2023-06-22T20:49:56;892.57;;;826.80;;
9900;SDS011;4989;48.772;9.154;2023-06-22T20:55:00;924.53;;;855.77;;
9900;SDS011;4989;48.772;9.154;2023-06-22T21:00:03;949.17;;;880.07;;
9900;SDS011;4989;48.772;9.154;2023-06-22T21:05:09;933.07;;;865.60;;
9900;SDS011;4989;48.772;9.154;2023-06-22T21:10:13;981.20;;;911.07;;
9900;SDS011;4989;48.772;9.154;2023-06-22T21:15:16;933.03;;;864.80;;
9900;SDS011;4989;48.772;9.154;2023-06-22T21:20:19;910.40;;;843.83;;
9900;SDS011;4989;48.772;9.154;2023-06-22T21:25:21;868.67;;;805.30;;
9900;SDS011;4989;48.772;9.154;2023-06-22T21:30:23;907.93;;;841.90;;
9900;SDS011;4989;48.772;9.154;2023-06-22T21:35:26;885.47;;;820.87;;
9900;SDS011;4989;48.772;9.154;2023-06-22T21:40:28;906.30;;;839.10;;
9900;SDS011;4989;48.772;9.154;2023-06-22T21:45:31;916.60;;;850.30;;
9900;SDS011;4989;48.772;9.154;2023-06-22T21:50:36;894.10;;;829.33;;
9900;SDS011;4989;48.772;9.154;2023-06-22T21:55:38;864.83;;;802.30;;
9900;SDS011;4989;48.772;9.154;2023-06-22T22:00:40;884.33;;;820.27;;
9900;SDS011;4989;48.772;9.154;2023-06-22T22:05:43;923.70;;;857.87;;
9900;SDS011;4989;48.772;9.154;2023-06-22T22:10:47;867.03;;;803.20;;
9900;SDS011;4989;48.772;9.154;2023-06-22T22:15:49;840.43;;;777.73;;
9900;SDS011;4989;48.772;9.154;2023-06-22T22:20:52;867.53;;;803.50;;
9900;SDS011;4989;48.772;9.154;2023-06-22T22:25:54;850.73;;;788.13;;
9900;SDS011;4989;48.772;9.154;2023-06-22T22:30:57;857.37;;;793.30;;
9900;SDS011;4989;48.772;9.154;2023-06-22T22:36:01;861.37;;;797.20;;
9900;SDS011;4989;48.772;9.154;2023-06-22T22:41:06;879.67;;;817.87;;
9900;SDS011;4989;48.772;9.154;2023-06-22T22:46:08;892.30;;;830.37;;
9900;SDS011;4989;48.772;9.154;2023-06-22T22:51:11;891.17;;;830.67;;
9900;SDS011;4989;48.772;9.154;2023-06-22T22:56:13;914.97;;;851.60;;
9900;SDS011;4989;48.772;9.154;2023-06-22T23:01:16;882.77;;;819.33;;
9900;SDS011;4989;48.772;9.154;2023-06-22T23:06:18;847.97;;;786.27;;
9900;SDS011;4989;48.772;9.154;2023-06-22T23:11:20;845.07;;;782.60;;
9900;SDS011;4989;48.772;9.154;2023-06-22T23:16:29;854.67;;;790.37;;
9900;SDS011;4989;48.772;9.154;2023-06-22T23:21:31;874.57;;;809.07;;
9900;SDS011;4989;48.772;9.154;2023-06-22T23:26:34;863.00;;;799.60;;
9900;SDS011;4989;48.772;9.154;2023-06-22T23:31:36;851.00;;;788.63;;
9900;SDS011;4989;48.772;9.154;2023-06-22T23:36:38;811.03;;;750.33;;
9900;SDS011;4989;48.772;9.154;2023-06-22T23:41:40;854.53;;;791.37;;
9900;SDS011;4989;48.772;9.154;2023-06-22T23:46:43;925.93;;;859.73;;
9900;SDS011;4989;48.772;9.154;2023-06-22T23:51:45;818.20;;;756.93;;
9900;SDS011;4989;48.772;9.154;2023-06-22T23:56:50;781.33;;;722.60;;
